createdAt,value
2018-06-21T00:00:36.272Z,5.97
2018-06-21T00:03:04.337Z,6.53
2018-06-21T00:05:32.360Z,6.17
2018-06-21T00:08:00.457Z,6.77
2018-06-21T00:10:28.589Z,6.23
2018-06-21T00:12:56.642Z,6.33
2018-06-21T00:15:24.709Z,7.53
2018-06-21T00:17:52.749Z,7.67
2018-06-21T00:20:20.805Z,7.33
2018-06-21T00:22:48.844Z,6.77
2018-06-21T00:25:16.901Z,6.90
2018-06-21T00:27:44.949Z,7.80
2018-06-21T00:30:13.076Z,6.97
2018-06-21T00:32:41.128Z,9.47
2018-06-21T00:35:09.169Z,7.90
2018-06-21T00:37:37.229Z,7.23
2018-06-21T00:40:05.284Z,8.03
2018-06-21T00:42:33.338Z,7.40
2018-06-21T00:45:01.439Z,7.23
2018-06-21T00:47:29.302Z,6.93
2018-06-21T00:49:57.333Z,7.20
2018-06-21T00:52:25.385Z,7.87
2018-06-21T00:54:53.457Z,8.70
2018-06-21T00:57:21.552Z,7.10
2018-06-21T00:59:49.584Z,7.83
2018-06-21T01:02:17.536Z,7.00
2018-06-21T01:04:45.644Z,6.77
2018-06-21T01:07:13.692Z,6.87
2018-06-21T01:09:41.779Z,6.87
2018-06-21T01:12:10.053Z,7.70
2018-06-21T01:14:38.149Z,7.33
2018-06-21T01:17:06.400Z,6.13
2018-06-21T01:19:34.457Z,7.50
2018-06-21T01:22:02.505Z,6.93
2018-06-21T01:24:30.536Z,6.90
2018-06-21T01:26:58.581Z,7.33
2018-06-21T01:29:26.628Z,7.43
2018-06-21T01:31:54.844Z,8.60
2018-06-21T01:34:22.894Z,7.97
2018-06-21T01:36:50.944Z,6.83
2018-06-21T01:39:19.018Z,6.93
2018-06-21T01:41:47.074Z,6.93
2018-06-21T01:44:15.185Z,6.97
2018-06-21T01:46:43.245Z,6.73
2018-06-21T01:49:11.333Z,7.07
2018-06-21T01:51:39.363Z,6.87
2018-06-21T01:54:07.401Z,7.27
2018-06-21T01:56:35.471Z,6.73
2018-06-21T01:59:03.693Z,6.77
2018-06-21T02:01:31.759Z,6.57
2018-06-21T02:03:59.796Z,6.50
2018-06-21T02:06:27.838Z,6.67
2018-06-21T02:08:55.913Z,7.17
2018-06-21T02:11:23.949Z,5.93
2018-06-21T02:13:52.026Z,5.77
2018-06-21T02:16:20.170Z,6.80
2018-06-21T02:18:48.247Z,6.47
2018-06-21T02:21:16.105Z,6.43
2018-06-21T02:23:44.182Z,6.27
2018-06-21T02:26:12.232Z,6.43
2018-06-21T02:28:40.439Z,5.97
2018-06-21T02:31:08.609Z,6.50
2018-06-21T02:33:36.836Z,6.50
2018-06-21T02:36:04.958Z,6.97
2018-06-21T02:38:33.100Z,6.80
2018-06-21T02:41:01.129Z,6.00
2018-06-21T02:43:29.233Z,6.23
2018-06-21T02:45:57.334Z,7.73
2018-06-21T02:48:25.344Z,6.20
2018-06-21T02:50:53.433Z,7.43
2018-06-21T02:53:21.493Z,6.40
2018-06-21T02:55:49.554Z,6.37
2018-06-21T02:58:17.650Z,6.50
2018-06-21T03:00:45.700Z,6.73
2018-06-21T03:03:13.753Z,6.10
2018-06-21T03:05:41.919Z,7.23
2018-06-21T03:08:09.967Z,5.93
2018-06-21T03:10:37.888Z,7.53
2018-06-21T03:13:05.964Z,7.33
2018-06-21T03:15:34.020Z,6.33
2018-06-21T03:18:02.096Z,6.40
2018-06-21T03:20:30.152Z,7.57
2018-06-21T03:22:58.173Z,6.63
2018-06-21T03:25:26.224Z,6.13
2018-06-21T03:27:54.273Z,7.87
2018-06-21T03:30:22.332Z,6.83
2018-06-21T03:32:51.028Z,6.70
2018-06-21T03:35:19.127Z,6.13
2018-06-21T03:37:47.165Z,6.40
2018-06-21T03:40:15.201Z,6.97
2018-06-21T03:42:43.425Z,6.83
2018-06-21T03:45:11.484Z,6.50
2018-06-21T03:47:39.537Z,6.93
2018-06-21T03:50:07.598Z,6.00
2018-06-21T03:52:35.624Z,5.87
2018-06-21T03:55:03.684Z,6.77
2018-06-21T03:57:31.811Z,6.60
2018-06-21T03:59:59.904Z,6.23
2018-06-21T04:02:27.933Z,5.97
2018-06-21T04:07:30.617Z,5.50
2018-06-21T04:09:58.688Z,5.93
2018-06-21T04:12:26.779Z,5.63
2018-06-21T04:14:54.925Z,4.47
2018-06-21T04:17:23.015Z,4.47
2018-06-21T04:19:51.105Z,3.43
2018-06-21T04:22:19.137Z,3.13
2018-06-21T04:24:47.172Z,2.60
2018-06-21T04:27:15.276Z,2.97
2018-06-21T04:29:43.309Z,2.93
2018-06-21T04:32:11.357Z,3.07
2018-06-21T04:34:39.369Z,2.40
2018-06-21T04:37:07.469Z,3.40
2018-06-21T04:39:35.568Z,2.50
2018-06-21T04:42:03.592Z,2.70
2018-06-21T04:44:31.641Z,3.40
2018-06-21T04:46:59.845Z,1.70
2018-06-21T04:49:27.975Z,1.90
2018-06-21T04:51:56.064Z,1.37
2018-06-21T04:54:24.116Z,3.23
2018-06-21T04:56:52.173Z,1.63
2018-06-21T04:59:20.032Z,1.57
2018-06-21T05:01:48.077Z,0.90
2018-06-21T05:04:16.165Z,1.10
2018-06-21T05:06:44.218Z,0.80
2018-06-21T05:09:12.944Z,1.20
2018-06-21T05:11:40.977Z,1.33
2018-06-21T05:14:09.511Z,1.00
2018-06-21T05:16:37.544Z,1.40
2018-06-21T05:19:05.637Z,1.90
2018-06-21T05:21:34.112Z,2.07
2018-06-21T05:24:02.162Z,2.33
2018-06-21T05:26:30.200Z,3.20
2018-06-21T05:28:58.389Z,2.70
2018-06-21T05:31:26.312Z,1.97
2018-06-21T05:33:54.375Z,2.03
2018-06-21T05:36:22.453Z,2.80
2018-06-21T05:38:50.493Z,3.00
2018-06-21T05:41:18.520Z,2.27
2018-06-21T05:43:46.578Z,1.90
2018-06-21T05:46:14.706Z,2.47
2018-06-21T05:48:42.769Z,2.07
2018-06-21T05:51:10.805Z,2.37
2018-06-21T05:53:38.853Z,2.40
2018-06-21T05:56:06.686Z,2.63
2018-06-21T05:58:34.724Z,2.53
2018-06-21T06:01:02.769Z,2.30
2018-06-21T06:03:30.848Z,2.33
2018-06-21T06:05:58.904Z,2.57
2018-06-21T06:08:26.960Z,2.20
2018-06-21T06:10:55.045Z,3.20
2018-06-21T06:13:23.100Z,2.47
2018-06-21T06:15:51.120Z,1.60
2018-06-21T06:18:19.177Z,2.20
2018-06-21T06:20:47.209Z,1.90
2018-06-21T06:23:15.268Z,2.03
2018-06-21T06:25:43.099Z,2.83
2018-06-21T06:28:11.197Z,2.03
2018-06-21T06:30:39.037Z,2.67
2018-06-21T06:33:07.206Z,2.27
2018-06-21T06:35:35.292Z,2.17
2018-06-21T06:38:03.782Z,2.17
2018-06-21T06:40:31.921Z,1.70
2018-06-21T06:42:59.964Z,2.43
2018-06-21T06:45:28.029Z,2.07
2018-06-21T06:47:56.053Z,1.67
2018-06-21T06:50:24.264Z,3.13
2018-06-21T06:52:52.364Z,2.47
2018-06-21T06:55:20.422Z,2.50
2018-06-21T06:57:48.481Z,1.87
2018-06-21T07:00:16.512Z,2.27
2018-06-21T07:02:44.424Z,2.53
2018-06-21T07:05:12.478Z,2.80
2018-06-21T07:07:40.504Z,1.97
2018-06-21T07:10:08.584Z,4.10
2018-06-21T07:12:36.613Z,2.20
2018-06-21T07:15:04.819Z,1.93
2018-06-21T07:17:32.924Z,2.00
2018-06-21T07:20:00.853Z,1.80
2018-06-21T07:22:28.901Z,1.63
2018-06-21T07:24:56.941Z,1.33
2018-06-21T07:27:24.974Z,1.30
2018-06-21T07:29:53.038Z,2.70
2018-06-21T07:32:21.105Z,1.37
2018-06-21T07:34:49.214Z,1.83
2018-06-21T07:37:17.276Z,2.10
2018-06-21T07:39:45.302Z,2.30
2018-06-21T07:42:13.242Z,1.70
2018-06-21T07:44:41.288Z,1.53
2018-06-21T07:47:09.357Z,1.80
2018-06-21T07:49:37.398Z,1.40
2018-06-21T07:52:05.457Z,1.00
2018-06-21T07:54:33.504Z,1.27
2018-06-21T07:57:01.706Z,1.23
2018-06-21T07:59:29.741Z,0.97
2018-06-21T08:01:57.797Z,1.07
2018-06-21T08:04:25.873Z,0.80
2018-06-21T08:06:53.925Z,1.30
2018-06-21T08:09:21.997Z,0.80
2018-06-21T08:11:50.102Z,1.47
2018-06-21T08:14:18.149Z,1.00
2018-06-21T08:16:46.200Z,1.10
2018-06-21T08:19:14.245Z,1.53
2018-06-21T08:21:42.311Z,1.10
2018-06-21T08:24:10.352Z,1.10
2018-06-21T08:26:39.362Z,1.87
2018-06-21T08:29:11.576Z,2.47
2018-06-21T08:31:41.443Z,1.30
2018-06-21T08:34:10.903Z,1.57
2018-06-21T08:36:41.601Z,1.27
2018-06-21T08:39:11.858Z,0.70
2018-06-21T08:41:42.487Z,0.90
2018-06-21T08:44:13.546Z,0.40
2018-06-21T08:46:44.317Z,0.90
2018-06-21T08:49:15.458Z,0.87
2018-06-21T08:51:46.119Z,1.27
2018-06-21T08:54:16.671Z,0.90
2018-06-21T08:56:46.880Z,1.17
2018-06-21T08:59:17.086Z,1.47
2018-06-21T09:01:48.387Z,1.87
2018-06-21T09:04:16.440Z,4.87
2018-06-21T09:06:46.897Z,3.07
2018-06-21T09:09:16.330Z,1.93
2018-06-21T09:11:46.129Z,1.30
2018-06-21T09:14:16.330Z,1.67
2018-06-21T09:16:45.153Z,1.00
2018-06-21T09:19:14.527Z,1.33
2018-06-21T09:21:43.528Z,0.90
2018-06-21T09:24:11.774Z,1.30
2018-06-21T09:26:39.796Z,1.43
2018-06-21T09:29:07.894Z,0.93
2018-06-21T09:31:36.112Z,1.33
2018-06-21T09:34:04.187Z,1.43
2018-06-21T09:36:36.520Z,1.20
2018-06-21T09:39:14.540Z,3.47
2018-06-21T09:41:50.462Z,1.10
2018-06-21T09:44:35.257Z,0.90
2018-06-21T09:47:08.738Z,0.80
2018-06-21T09:49:37.224Z,1.00
2018-06-21T09:52:06.324Z,0.83
2018-06-21T09:54:36.442Z,2.43
2018-06-21T09:57:04.540Z,1.20
2018-06-21T09:59:32.604Z,1.43
2018-06-21T10:02:01.494Z,1.40
2018-06-21T10:04:29.516Z,1.00
2018-06-21T10:06:57.592Z,1.37
2018-06-21T10:09:27.966Z,1.13
2018-06-21T10:11:58.216Z,1.67
2018-06-21T10:14:29.129Z,1.70
2018-06-21T10:16:59.905Z,1.60
2018-06-21T10:19:30.324Z,1.70
2018-06-21T10:21:58.365Z,1.87
2018-06-21T10:24:26.421Z,1.70
2018-06-21T10:26:54.457Z,2.73
2018-06-21T10:29:22.525Z,1.90
2018-06-21T10:31:50.581Z,2.30
2018-06-21T10:34:18.652Z,2.00
2018-06-21T10:36:49.150Z,2.13
2018-06-21T10:39:17.485Z,1.93
2018-06-21T10:41:45.513Z,1.80
2018-06-21T10:44:13.570Z,1.50
2018-06-21T10:46:41.648Z,2.37
2018-06-21T10:49:09.848Z,1.97
2018-06-21T10:51:38.392Z,2.30
2018-06-21T10:54:09.732Z,1.70
2018-06-21T10:56:37.783Z,1.87
2018-06-21T10:59:05.832Z,1.20
2018-06-21T11:01:33.913Z,0.83
2018-06-21T11:04:01.964Z,1.23
2018-06-21T11:06:29.884Z,0.90
2018-06-21T11:08:58.120Z,0.90
2018-06-21T11:11:25.995Z,1.43
2018-06-21T11:13:54.036Z,1.63
2018-06-21T11:16:22.096Z,0.83
2018-06-21T11:18:50.485Z,0.73
2018-06-21T11:21:18.607Z,0.73
2018-06-21T11:23:46.575Z,0.37
2018-06-21T11:26:14.632Z,0.90
2018-06-21T11:28:42.685Z,0.70
2018-06-21T11:31:11.125Z,0.80
2018-06-21T11:33:39.204Z,1.13
2018-06-21T11:36:13.863Z,0.50
2018-06-21T11:38:42.068Z,0.73
2018-06-21T11:41:10.148Z,0.73
2018-06-21T11:43:38.205Z,0.93
2018-06-21T11:46:06.241Z,0.60
2018-06-21T11:48:34.307Z,0.90
2018-06-21T11:51:02.217Z,0.60
2018-06-21T11:53:30.281Z,1.10
2018-06-21T11:55:58.372Z,0.97
2018-06-21T11:58:26.437Z,1.10
2018-06-21T12:00:54.465Z,0.57
2018-06-21T12:03:22.576Z,0.87
2018-06-21T12:05:50.553Z,0.67
2018-06-21T12:08:18.632Z,0.63
2018-06-21T12:10:46.712Z,0.40
2018-06-21T12:13:14.777Z,0.87
2018-06-21T12:15:42.828Z,0.50
2018-06-21T12:18:10.931Z,0.77
2018-06-21T12:20:39.076Z,0.53
2018-06-21T12:23:07.196Z,0.80
2018-06-21T12:25:36.911Z,0.60
2018-06-21T12:28:05.124Z,0.67
2018-06-21T12:30:33.361Z,0.80
2018-06-21T12:33:01.288Z,1.10
2018-06-21T12:35:29.406Z,0.87
2018-06-21T12:37:57.501Z,0.90
2018-06-21T12:40:25.890Z,0.53
2018-06-21T12:42:53.940Z,0.70
2018-06-21T12:45:22.061Z,0.80
2018-06-21T12:47:50.140Z,0.60
2018-06-21T12:50:18.205Z,0.60
2018-06-21T12:52:46.325Z,0.73
2018-06-21T12:55:15.336Z,0.80
2018-06-21T12:57:43.389Z,0.97
2018-06-21T13:00:11.441Z,0.40
2018-06-21T13:02:39.517Z,0.80
2018-06-21T13:05:08.190Z,0.40
2018-06-21T13:07:36.269Z,0.57
2018-06-21T13:10:15.809Z,0.27
2018-06-21T13:12:59.628Z,1.13
2018-06-21T13:15:30.654Z,0.40
2018-06-21T13:18:00.124Z,1.00
2018-06-21T13:20:30.788Z,0.40
2018-06-21T13:23:02.675Z,1.10
2018-06-21T13:25:31.013Z,1.03
2018-06-21T13:27:59.082Z,1.40
2018-06-21T13:30:31.744Z,1.00
2018-06-21T13:32:59.909Z,1.73
2018-06-21T13:35:35.866Z,0.97
2018-06-21T13:38:03.993Z,1.07
2018-06-21T13:40:32.046Z,0.33
2018-06-21T13:43:00.232Z,0.77
2018-06-21T13:45:28.295Z,0.57
2018-06-21T13:47:56.633Z,0.70
2018-06-21T13:50:24.893Z,0.83
2018-06-21T13:52:53.018Z,0.80
2018-06-21T13:55:21.142Z,0.87
2018-06-21T13:57:52.848Z,0.60
2018-06-21T14:00:20.877Z,0.67
2018-06-21T14:02:49.034Z,0.53
2018-06-21T14:05:17.268Z,1.37
2018-06-21T14:07:47.086Z,0.50
2018-06-21T14:10:15.204Z,0.97
2018-06-21T14:12:43.282Z,0.60
2018-06-21T14:15:11.338Z,1.10
2018-06-21T14:17:39.448Z,1.20
2018-06-21T14:20:07.568Z,1.43
2018-06-21T14:22:35.636Z,0.70
2018-06-21T14:25:03.821Z,1.07
2018-06-21T14:27:32.001Z,1.60
2018-06-21T14:30:02.715Z,1.00
2018-06-21T14:32:31.056Z,0.83
2018-06-21T14:35:05.865Z,0.80
2018-06-21T14:37:39.507Z,0.80
2018-06-21T14:40:16.102Z,0.80
2018-06-21T14:42:47.782Z,0.60
2018-06-21T14:45:19.978Z,1.00
2018-06-21T14:47:49.625Z,1.30
2018-06-21T14:50:27.681Z,1.50
2018-06-21T14:52:55.853Z,0.83
2018-06-21T14:55:24.026Z,1.13
2018-06-21T14:57:52.281Z,0.97
2018-06-21T15:00:20.327Z,0.50
2018-06-21T15:02:48.384Z,0.63
2018-06-21T15:05:16.463Z,0.90
2018-06-21T15:07:44.272Z,0.90
2018-06-21T15:10:12.430Z,0.43
2018-06-21T15:12:40.524Z,1.00
2018-06-21T15:15:08.588Z,1.00
2018-06-21T15:17:36.621Z,1.10
2018-06-21T15:20:04.713Z,0.90
2018-06-21T15:22:33.005Z,1.40
2018-06-21T15:25:01.165Z,0.90
2018-06-21T15:27:29.350Z,1.27
2018-06-21T15:29:57.389Z,0.83
2018-06-21T15:32:25.441Z,0.97
2018-06-21T15:34:53.669Z,0.90
2018-06-21T15:37:21.843Z,0.80
2018-06-21T15:39:49.952Z,0.80
2018-06-21T15:42:17.993Z,1.27
2018-06-21T15:44:46.059Z,0.73
2018-06-21T15:47:14.157Z,0.97
2018-06-21T15:49:46.104Z,0.90
2018-06-21T15:52:14.349Z,0.83
2018-06-21T15:54:42.650Z,0.63
2018-06-21T15:57:10.595Z,0.73
2018-06-21T15:59:38.640Z,0.63
2018-06-21T16:02:06.689Z,0.53
2018-06-21T16:04:35.001Z,0.47
2018-06-21T16:07:03.464Z,0.57
2018-06-21T16:09:31.727Z,0.97
2018-06-21T16:11:59.766Z,0.90
2018-06-21T16:14:32.405Z,0.97
2018-06-21T16:17:04.161Z,0.57
2018-06-21T16:19:32.320Z,1.10
2018-06-21T16:22:00.623Z,1.20
2018-06-21T16:24:28.750Z,1.20
2018-06-21T16:26:57.040Z,1.50
2018-06-21T16:29:25.213Z,0.90
2018-06-21T16:31:53.846Z,0.63
2018-06-21T16:34:21.954Z,0.33
2018-06-21T16:36:49.985Z,0.60
2018-06-21T16:39:18.241Z,0.57
2018-06-21T16:41:46.373Z,0.70
2018-06-21T16:44:14.406Z,0.90
2018-06-21T16:46:42.564Z,0.60
2018-06-21T16:50:14.149Z,0.90
2018-06-21T16:52:42.176Z,0.47
2018-06-21T16:55:10.233Z,1.00
2018-06-21T16:57:38.493Z,1.00
2018-06-21T17:00:06.845Z,1.03
2018-06-21T17:02:34.939Z,0.67
2018-06-21T17:05:02.969Z,0.90
2018-06-21T17:07:31.068Z,1.43
2018-06-21T17:09:59.208Z,0.50
2018-06-21T17:12:28.280Z,1.47
2018-06-21T17:14:56.485Z,1.00
2018-06-21T17:17:25.548Z,0.60
2018-06-21T17:19:53.601Z,0.93
2018-06-21T17:22:21.646Z,1.00
2018-06-21T17:24:49.512Z,0.80
2018-06-21T17:27:17.540Z,1.50
2018-06-21T17:29:45.622Z,1.57
2018-06-21T17:32:13.644Z,1.13
2018-06-21T17:34:41.685Z,0.97
2018-06-21T17:37:09.797Z,1.10
2018-06-21T17:39:37.921Z,0.97
2018-06-21T17:42:06.305Z,1.07
2018-06-21T17:44:34.989Z,1.47
2018-06-21T17:47:03.057Z,1.20
2018-06-21T17:49:31.136Z,1.37
2018-06-21T17:51:59.197Z,1.77
2018-06-21T17:54:27.248Z,0.93
2018-06-21T17:56:55.460Z,1.30
2018-06-21T17:59:23.598Z,0.70
2018-06-21T18:01:51.661Z,0.83
2018-06-21T18:04:19.781Z,1.03
2018-06-21T18:06:50.792Z,0.63
2018-06-21T18:09:18.864Z,0.60
2018-06-21T18:11:46.933Z,1.20
2018-06-21T18:14:15.190Z,1.07
2018-06-21T18:16:43.237Z,0.90
2018-06-21T18:19:12.451Z,1.07
2018-06-21T18:21:40.528Z,1.20
2018-06-21T18:24:08.548Z,1.43
2018-06-21T18:26:36.581Z,0.50
2018-06-21T18:29:04.686Z,1.17
2018-06-21T18:31:32.817Z,0.77
2018-06-21T18:34:00.852Z,1.07
2018-06-21T18:36:28.897Z,0.70
2018-06-21T18:38:56.941Z,1.00
2018-06-21T18:41:25.104Z,1.07
2018-06-21T18:43:53.156Z,0.87
2018-06-21T18:46:21.271Z,1.03
2018-06-21T18:48:49.373Z,1.10
2018-06-21T18:51:27.473Z,0.93
2018-06-21T18:53:56.065Z,1.10
2018-06-21T18:56:24.386Z,0.70
2018-06-21T18:58:52.497Z,0.97
2018-06-21T19:01:21.291Z,1.30
2018-06-21T19:03:54.383Z,0.80
2018-06-21T19:06:27.996Z,1.10
2018-06-21T19:09:02.641Z,0.90
2018-06-21T19:11:36.053Z,1.73
2018-06-21T19:14:04.340Z,1.00
2018-06-21T19:16:32.464Z,0.80
2018-06-21T19:19:00.733Z,1.10
2018-06-21T19:21:29.001Z,1.10
2018-06-21T19:23:57.985Z,0.80
2018-06-21T19:26:26.199Z,1.47
2018-06-21T19:28:55.237Z,1.77
2018-06-21T19:31:23.306Z,1.17
2018-06-21T19:33:52.009Z,1.23
2018-06-21T19:36:24.386Z,0.93
2018-06-21T19:38:54.859Z,0.90
2018-06-21T19:41:26.527Z,1.00
2018-06-21T19:43:58.618Z,1.50
2018-06-21T19:46:27.631Z,1.23
2018-06-21T19:48:55.742Z,0.60
2018-06-21T19:51:23.969Z,1.17
2018-06-21T19:53:52.665Z,1.53
2018-06-21T19:56:20.857Z,1.17
2018-06-21T19:58:50.220Z,1.30
2018-06-21T20:01:20.522Z,1.50
2018-06-21T20:03:48.680Z,1.00
2018-06-21T20:06:17.870Z,1.33
2018-06-21T20:08:46.278Z,3.23
2018-06-21T20:11:21.183Z,2.50
2018-06-21T20:13:51.983Z,2.20
2018-06-21T20:16:23.379Z,2.03
2018-06-21T20:18:53.088Z,1.70
2018-06-21T20:21:26.073Z,1.37
2018-06-21T20:23:57.734Z,4.50
2018-06-21T20:26:26.391Z,1.37
2018-06-21T20:28:55.211Z,4.60
2018-06-21T20:31:25.662Z,2.60
2018-06-21T20:33:54.212Z,2.83
2018-06-21T20:36:27.654Z,1.10
2018-06-21T20:38:56.614Z,2.63
2018-06-21T20:41:25.754Z,2.20
2018-06-21T20:43:56.490Z,0.60
2018-06-21T20:46:24.897Z,1.17
2018-06-21T20:48:53.249Z,1.07
2018-06-21T20:51:21.680Z,1.43
2018-06-21T20:53:49.887Z,1.00
2018-06-21T20:56:19.206Z,2.60
2018-06-21T20:58:47.295Z,1.23
2018-06-21T21:01:16.936Z,1.10
2018-06-21T21:03:45.439Z,1.50
2018-06-21T21:06:13.644Z,1.10
2018-06-21T21:08:45.547Z,1.60
2018-06-21T21:11:13.815Z,1.50
2018-06-21T21:13:42.671Z,1.97
2018-06-21T21:16:10.854Z,1.67
2018-06-21T21:18:39.263Z,1.90
2018-06-21T21:21:09.249Z,1.30
2018-06-21T21:23:37.560Z,1.10
2018-06-21T21:26:06.553Z,1.87
2018-06-21T21:28:35.231Z,1.27
2018-06-21T21:31:03.485Z,1.43
2018-06-21T21:33:31.694Z,2.10
2018-06-21T21:36:01.711Z,1.43
2018-06-21T21:38:29.869Z,1.30
2018-06-21T21:41:01.811Z,1.17
2018-06-21T21:43:30.702Z,2.17
2018-06-21T21:45:59.568Z,2.37
2018-06-21T21:48:28.128Z,1.40
2018-06-21T21:50:56.360Z,1.47
2018-06-21T21:53:24.595Z,1.20
2018-06-21T21:55:58.339Z,0.50
2018-06-21T21:58:29.113Z,1.27
2018-06-21T22:01:03.258Z,1.00
2018-06-21T22:03:35.346Z,1.30
2018-06-21T22:06:06.393Z,1.00
2018-06-21T22:08:38.703Z,1.03
2018-06-21T22:11:13.130Z,1.13
2018-06-21T22:13:42.269Z,1.10
2018-06-21T22:16:11.215Z,1.17
2018-06-21T22:18:40.382Z,0.90
2018-06-21T22:21:08.533Z,1.00
2018-06-21T22:23:36.669Z,0.60
2018-06-21T22:26:04.881Z,1.10
2018-06-21T22:28:32.981Z,0.97
2018-06-21T22:31:01.261Z,1.57
2018-06-21T22:33:29.360Z,1.33
2018-06-21T22:35:57.456Z,1.57
2018-06-21T22:38:25.516Z,1.13
2018-06-21T22:40:53.551Z,0.97
2018-06-21T22:43:21.785Z,1.03
2018-06-21T22:45:50.007Z,1.17
2018-06-21T22:48:18.062Z,1.33
2018-06-21T22:50:46.100Z,2.30
2018-06-21T22:53:14.380Z,0.50
2018-06-21T22:55:42.245Z,0.60
2018-06-21T22:58:10.502Z,0.40
2018-06-21T23:00:38.557Z,0.80
2018-06-21T23:03:06.646Z,0.90
2018-06-21T23:05:34.742Z,0.67
2018-06-21T23:08:04.023Z,0.70
2018-06-21T23:10:32.594Z,1.27
2018-06-21T23:13:00.698Z,0.93
2018-06-21T23:15:29.044Z,0.73
2018-06-21T23:17:57.332Z,0.70
2018-06-21T23:20:25.482Z,1.40
2018-06-21T23:22:53.511Z,0.80
2018-06-21T23:25:21.552Z,0.53
2018-06-21T23:27:49.734Z,0.50
2018-06-21T23:30:17.918Z,0.73
2018-06-21T23:32:45.968Z,0.73
2018-06-21T23:35:19.565Z,0.93
2018-06-21T23:37:47.799Z,0.43
2018-06-21T23:40:15.830Z,0.63
2018-06-21T23:42:44.583Z,0.80
2018-06-21T23:45:12.642Z,0.53
2018-06-21T23:47:40.690Z,0.97
2018-06-21T23:50:08.847Z,1.00
2018-06-21T23:52:37.463Z,0.57
2018-06-21T23:55:05.722Z,1.40
2018-06-21T23:57:33.576Z,0.80
